Time;durP1;ratioP1;P1;durP2;ratioP2;P2;SDS_P1;SDS_P2;PMS_P1;PMS_P2;Temp;Humidity;BMP_temperature;BMP_pressure;BME280_temperature;BME280_humidity;BME280_pressure;Samples;Min_cycle;Max_cycle;Signal;HPM_P1;HPM_P2
2021/12/05 00:16:56;;;;;;;;;;;;;;;4.52;82.48;99661.56;5224064;28;19917;-70
2021/12/05 00:21:38;;;;;;;;;;;;;;;4.37;82.43;99664.34;5222640;28;19922;-70
2021/12/05 00:24:12;;;;;;;;;;;;;;;4.32;82.71;99664.38;5223463;28;19921;-70
2021/12/05 00:26:47;;;;;;;;;;;;;;;4.33;82.48;99661.34;5223923;28;19972;-70
2021/12/05 00:29:27;;;;;;;;;;;;;;;4.33;82.17;99664.09;5223798;28;19929;-70
2021/12/05 00:32:48;;;;;;;;;;;;;;;4.29;82.18;99663.00;5222980;28;19921;-70
2021/12/05 00:54:55;;;;;;;;;;;;;;;4.21;82.95;99655.34;5232790;28;19968;-70
2021/12/05 01:09:19;;;;;;;;;;;;;;;4.17;82.34;99669.88;5193329;28;19987;-70
2021/12/05 01:17:36;;;;;;;;;;;;;;;4.19;82.80;99664.94;5223259;28;20397;-70
2021/12/05 01:20:16;;;;;;;;;;;;;;;4.20;82.65;99667.41;5222487;28;19932;-70
2021/12/05 01:22:58;;;;;;;;;;;;;;;4.18;82.31;99668.78;5222602;28;19921;-70
2021/12/05 01:25:43;;;;;;;;;;;;;;;4.16;82.46;99660.00;5222756;28;20040;-70
2021/12/05 01:28:37;;;;;;;;;;;;;;;4.14;82.60;99665.75;5232323;28;20288;-70
2021/12/05 01:31:52;;;;;;;;;;;;;;;4.10;82.39;99664.69;5222240;28;19924;-70
2021/12/05 01:40:01;;;;;;;;;;;;;;;4.04;83.11;99661.13;5223017;28;19925;-70
2021/12/05 01:57:03;;;;;;;;;;;;;;;3.98;83.32;99672.38;5206268;28;19926;-70
2021/12/05 02:33:07;;;;;;;;;;;;;;;3.70;84.78;99638.91;5206875;28;19921;-70
2021/12/05 02:38:30;;;;;;;;;;;;;;;3.72;84.95;99642.19;5221405;28;20007;-71
2021/12/05 02:41:17;;;;;;;;;;;;;;;3.73;84.91;99635.59;5221094;28;20347;-70
2021/12/05 02:43:58;;;;;;;;;;;;;;;3.74;85.11;99640.00;5219964;28;20366;-69
2021/12/05 02:46:30;;;;;;;;;;;;;;;3.74;84.93;99637.25;5221573;28;19917;-70
2021/12/05 02:49:04;;;;;;;;;;;;;;;3.73;85.33;99637.53;5221492;28;20309;-69
2021/12/05 02:51:35;;;;;;;;;;;;;;;3.75;85.10;99636.16;5220961;28;19922;-69
2021/12/05 02:54:15;;;;;;;;;;;;;;;3.75;85.18;99636.16;5221425;28;19979;-70
2021/12/05 02:56:50;;;;;;;;;;;;;;;3.72;85.22;99639.44;5221349;28;19983;-69
2021/12/05 02:59:26;;;;;;;;;;;;;;;3.71;85.93;99646.03;5216217;28;20012;-69
2021/12/05 03:02:03;;;;;;;;;;;;;;;3.74;85.73;99644.69;5214326;28;19922;-69
2021/12/05 03:04:36;;;;;;;;;;;;;;;3.70;85.81;99645.19;5221623;28;19917;-69
2021/12/05 03:07:10;;;;;;;;;;;;;;;3.72;85.83;99644.94;5220722;28;19971;-69
2021/12/05 03:09:42;;;;;;;;;;;;;;;3.74;85.87;99650.97;5221762;28;20292;-69
2021/12/05 03:12:18;;;;;;;;;;;;;;;3.74;86.31;99645.50;5219701;28;19921;-69
2021/12/05 03:14:50;;;;;;;;;;;;;;;3.77;86.16;99647.69;5220874;28;20063;-69
2021/12/05 03:17:21;;;;;;;;;;;;;;;3.81;86.55;99639.72;5221029;28;19933;-69
2021/12/05 03:19:52;;;;;;;;;;;;;;;3.85;86.20;99633.41;5219825;28;19929;-69
2021/12/05 03:22:23;;;;;;;;;;;;;;;3.89;86.33;99634.53;5222009;28;20007;-69
2021/12/05 03:24:54;;;;;;;;;;;;;;;3.90;85.99;99632.59;5225931;28;20395;-69
2021/12/05 03:27:26;;;;;;;;;;;;;;;3.90;85.84;99627.91;5224404;28;19948;-69
2021/12/05 03:29:58;;;;;;;;;;;;;;;3.96;86.02;99626.00;5225376;28;20067;-69
2021/12/05 03:32:29;;;;;;;;;;;;;;;3.88;86.38;99630.13;5224163;28;19922;-69
2021/12/05 03:35:01;;;;;;;;;;;;;;;3.90;86.06;99630.66;5224656;28;19917;-69
2021/12/05 03:37:32;;;;;;;;;;;;;;;3.92;86.19;99633.97;5225223;28;20021;-69
2021/12/05 03:40:06;;;;;;;;;;;;;;;3.93;86.30;99632.84;5224282;28;19917;-69
2021/12/05 03:42:37;;;;;;;;;;;;;;;3.92;86.47;99623.00;5230772;28;19943;-70
2021/12/05 03:45:11;;;;;;;;;;;;;;;3.89;86.25;99628.22;5228273;28;19918;-69
2021/12/05 03:47:42;;;;;;;;;;;;;;;3.91;86.15;99626.84;5223894;28;19924;-69
2021/12/05 03:50:14;;;;;;;;;;;;;;;3.90;86.76;99636.16;5224148;28;20296;-69
2021/12/05 03:52:45;;;;;;;;;;;;;;;3.95;86.52;99634.53;5224472;28;19925;-69
2021/12/05 03:55:17;;;;;;;;;;;;;;;3.97;86.20;99627.66;5223534;28;19918;-70
2021/12/05 03:57:48;;;;;;;;;;;;;;;3.99;86.38;99627.38;5224886;28;20012;-69
2021/12/05 04:00:22;;;;;;;;;;;;;;;4.01;86.09;99633.41;5225301;28;19950;-70
2021/12/05 04:02:54;;;;;;;;;;;;;;;4.02;86.01;99630.41;5238475;28;19976;-69
2021/12/05 04:05:26;;;;;;;;;;;;;;;4.00;86.14;99631.78;5203980;28;19918;-69
2021/12/05 04:07:58;;;;;;;;;;;;;;;4.01;86.36;99634.22;5204105;28;20398;-69
2021/12/05 04:10:29;;;;;;;;;;;;;;;4.04;86.27;99646.56;5215878;28;19918;-69
2021/12/05 04:13:00;;;;;;;;;;;;;;;4.07;85.91;99648.78;5223768;28;19929;-69
2021/12/05 04:15:32;;;;;;;;;;;;;;;4.09;86.31;99638.31;5223609;28;19996;-69
2021/12/05 04:18:04;;;;;;;;;;;;;;;4.10;86.37;99637.25;5233815;28;19961;-70
2021/12/05 04:20:35;;;;;;;;;;;;;;;4.12;86.34;99630.38;5223786;28;20293;-69
2021/12/05 04:23:07;;;;;;;;;;;;;;;4.09;86.24;99628.19;5223171;28;19936;-69
2021/12/05 04:25:38;;;;;;;;;;;;;;;4.07;86.14;99643.28;5223993;28;19971;-69
2021/12/05 04:28:09;;;;;;;;;;;;;;;4.04;86.49;99633.69;5224161;28;20278;-69
2021/12/05 04:30:41;;;;;;;;;;;;;;;4.07;86.52;99641.38;5222498;28;19979;-69
2021/12/05 04:33:12;;;;;;;;;;;;;;;4.11;86.86;99633.38;5223901;28;20349;-69
2021/12/05 04:35:44;;;;;;;;;;;;;;;4.16;86.20;99636.13;5223098;28;19932;-69
2021/12/05 04:38:15;;;;;;;;;;;;;;;4.16;86.53;99643.53;5223130;28;20416;-69
2021/12/05 04:40:48;;;;;;;;;;;;;;;4.18;86.45;99647.66;5223471;28;20008;-69
2021/12/05 04:43:19;;;;;;;;;;;;;;;4.17;86.18;99651.50;5223196;28;19960;-69
2021/12/05 04:45:50;;;;;;;;;;;;;;;4.18;86.02;99639.44;5223249;28;19968;-69
2021/12/05 04:48:21;;;;;;;;;;;;;;;4.16;86.71;99638.06;5223357;28;19921;-69
2021/12/05 04:50:52;;;;;;;;;;;;;;;4.18;86.64;99644.91;5226601;28;20382;-69
2021/12/05 04:53:26;;;;;;;;;;;;;;;4.21;86.62;99638.06;5223534;28;20032;-69
2021/12/05 04:55:58;;;;;;;;;;;;;;;4.21;86.66;99635.31;5223722;28;20028;-70
2021/12/05 04:58:29;;;;;;;;;;;;;;;4.20;86.78;99637.22;5222643;28;20285;-70
2021/12/05 05:01:00;;;;;;;;;;;;;;;4.19;86.73;99635.56;5223065;28;19928;-69
2021/12/05 05:03:33;;;;;;;;;;;;;;;4.19;87.10;99634.75;5223339;28;19967;-70
2021/12/05 05:06:16;;;;;;;;;;;;;;;4.15;86.87;99634.50;5222777;28;20405;-69
2021/12/05 05:08:49;;;;;;;;;;;;;;;4.13;87.25;99637.50;5223902;28;19917;-70
2021/12/05 05:11:23;;;;;;;;;;;;;;;4.14;87.29;99641.06;5222324;28;19925;-69
2021/12/05 05:13:55;;;;;;;;;;;;;;;4.16;87.48;99636.13;5222397;28;20320;-69
2021/12/05 05:16:26;;;;;;;;;;;;;;;4.17;87.26;99646.03;5214626;28;19922;-70
2021/12/05 05:19:00;;;;;;;;;;;;;;;4.14;87.46;99638.31;5204094;28;19933;-69
2021/12/05 05:21:54;;;;;;;;;;;;;;;4.15;87.21;99639.97;5222866;28;19925;-69
2021/12/05 05:30:13;;;;;;;;;;;;;;;4.19;87.59;99654.78;5222303;28;19929;-69
2021/12/05 05:46:50;;;;;;;;;;;;;;;4.07;87.09;99665.25;5221624;28;19917;-68
2021/12/05 05:49:32;;;;;;;;;;;;;;;4.00;86.94;99678.41;5221583;28;19928;-68
2021/12/05 05:52:03;;;;;;;;;;;;;;;3.99;87.14;99674.00;5222698;28;19917;-70
2021/12/05 05:54:38;;;;;;;;;;;;;;;4.00;86.55;99681.16;5203196;28;19929;-70
2021/12/05 05:57:18;;;;;;;;;;;;;;;3.98;86.70;99672.38;5202125;28;20012;-69
2021/12/05 06:00:01;;;;;;;;;;;;;;;3.95;86.99;99678.41;5219504;28;19922;-70
2021/12/05 06:05:23;;;;;;;;;;;;;;;3.87;86.73;99677.03;5221414;28;19921;-69
2021/12/05 06:07:54;;;;;;;;;;;;;;;3.88;87.44;99676.75;5221435;28;19918;-70
2021/12/05 06:10:27;;;;;;;;;;;;;;;3.89;87.16;99681.16;5222000;28;19953;-69
2021/12/05 06:12:59;;;;;;;;;;;;;;;3.89;87.04;99681.16;5222088;28;19917;-70
2021/12/05 06:15:30;;;;;;;;;;;;;;;3.90;87.21;99682.78;5220613;28;19921;-70
2021/12/05 06:18:01;;;;;;;;;;;;;;;3.90;87.42;99684.72;5224881;28;19944;-70
2021/12/05 06:20:33;;;;;;;;;;;;;;;3.94;87.46;99680.34;5221923;28;19964;-70
2021/12/05 06:23:04;;;;;;;;;;;;;;;3.91;87.21;99687.19;5221261;28;19917;-70
2021/12/05 06:25:38;;;;;;;;;;;;;;;3.89;87.49;99685.81;5220693;28;20423;-70
2021/12/05 06:28:12;;;;;;;;;;;;;;;3.88;87.46;99684.16;5212261;28;19918;-70
2021/12/05 06:30:49;;;;;;;;;;;;;;;3.88;87.46;99687.72;5200493;28;19949;-70
2021/12/05 06:39:22;;;;;;;;;;;;;;;3.99;87.37;99702.28;5212374;28;19921;-68
2021/12/05 06:42:09;;;;;;;;;;;;;;;4.01;87.55;99707.47;5221406;28;19921;-69
2021/12/05 06:47:30;;;;;;;;;;;;;;;4.05;87.37;99722.31;5221800;28;19913;-69
2021/12/05 06:50:02;;;;;;;;;;;;;;;4.09;87.44;99717.91;5221396;28;19917;-68
2021/12/05 06:52:33;;;;;;;;;;;;;;;4.09;87.18;99716.00;5221559;28;20020;-69
2021/12/05 06:55:04;;;;;;;;;;;;;;;4.12;87.63;99720.13;5220743;28;19921;-69
2021/12/05 06:57:36;;;;;;;;;;;;;;;4.12;87.59;99733.84;5219616;28;19923;-70
2021/12/05 07:00:09;;;;;;;;;;;;;;;4.11;87.49;99733.00;5221491;28;20408;-69
2021/12/05 07:02:40;;;;;;;;;;;;;;;4.14;87.70;99726.13;5220061;28;20412;-69
2021/12/05 07:07:49;;;;;;;;;;;;;;;4.19;87.51;99745.34;5221179;28;19924;-70
2021/12/05 07:10:21;;;;;;;;;;;;;;;4.18;87.30;99751.94;5221067;28;19921;-70
2021/12/05 07:13:20;;;;;;;;;;;;;;;4.22;87.37;99757.69;5220687;28;19917;-68
2021/12/05 07:16:02;;;;;;;;;;;;;;;4.25;87.42;99755.25;5220322;28;19965;-71
2021/12/05 07:18:42;;;;;;;;;;;;;;;4.30;87.63;99754.44;5214463;28;19933;-69
2021/12/05 07:40:51;;;;;;;;;;;;;;;4.35;87.54;99773.63;5215753;28;19928;-69
2021/12/05 07:43:22;;;;;;;;;;;;;;;4.32;87.28;99783.25;5219655;28;20891;-69
2021/12/05 07:45:57;;;;;;;;;;;;;;;4.35;87.61;99790.09;5219082;28;20373;-70
2021/12/05 07:48:33;;;;;;;;;;;;;;;4.36;87.31;99789.00;5219477;28;20392;-69
2021/12/05 07:53:57;;;;;;;;;;;;;;;4.38;87.11;99799.72;5220203;28;19949;-70
2021/12/05 08:16:06;;;;;;;;;;;;;;;4.60;86.95;99824.13;5223094;28;19922;-70
2021/12/05 08:18:37;;;;;;;;;;;;;;;4.63;86.94;99821.69;5223897;28;19925;-70
2021/12/05 08:21:09;;;;;;;;;;;;;;;4.63;86.75;99824.44;5224046;28;19921;-69
2021/12/05 08:23:40;;;;;;;;;;;;;;;4.65;86.67;99824.94;5223224;28;19921;-70
2021/12/05 08:26:20;;;;;;;;;;;;;;;4.63;86.46;99818.94;5224024;28;19940;-69
2021/12/05 08:32:01;;;;;;;;;;;;;;;4.66;86.88;99834.84;5220479;28;19922;-68
2021/12/05 08:42:59;;;;;;;;;;;;;;;4.72;86.67;99839.25;5222848;28;19922;-70
2021/12/05 09:20:39;;;;;;;;;;;;;;;4.78;86.36;99876.63;5220880;28;19921;-68
2021/12/05 09:29:01;;;;;;;;;;;;;;;4.77;87.10;99899.66;5223196;28;19917;-69
2021/12/05 09:38:34;;;;;;;;;;;;;;;4.80;86.79;99904.63;5222547;28;19928;-68
2021/12/05 10:08:28;;;;;;;;;;;;;;;4.89;88.14;99951.63;5221355;28;19917;-69
2021/12/05 10:11:05;;;;;;;;;;;;;;;4.89;88.12;99959.84;5221648;28;20376;-68
2021/12/05 10:13:57;;;;;;;;;;;;;;;4.90;88.20;99952.44;5218872;28;19921;-69
2021/12/05 10:16:47;;;;;;;;;;;;;;;4.91;88.44;99965.06;5221264;28;20048;-69
2021/12/05 10:26:27;;;;;;;;;;;;;;;4.94;88.34;99970.03;5221610;28;19925;-69
2021/12/05 10:35:00;;;;;;;;;;;;;;;4.98;87.76;99988.44;5220990;28;19922;-68
2021/12/05 10:37:17;;;;;;;;;;;;;;;4.99;87.70;99990.09;5221001;28;20289;-69
2021/12/05 10:40:01;;;;;;;;;;;;;;;5.06;89.25;99984.31;5221353;28;19980;-67
2021/12/05 10:42:43;;;;;;;;;;;;;;;5.10;88.30;99985.41;5218806;28;19922;-66
2021/12/05 10:45:37;;;;;;;;;;;;;;;5.11;87.58;99987.06;5220799;28;19922;-67
2021/12/05 10:48:10;;;;;;;;;;;;;;;5.09;87.04;99988.44;5211960;28;19924;-67
2021/12/05 10:50:43;;;;;;;;;;;;;;;5.05;86.50;99988.16;5216709;28;20020;-66
2021/12/05 10:53:35;;;;;;;;;;;;;;;4.98;86.20;99988.44;5220086;28;20278;-66
2021/12/05 10:56:14;;;;;;;;;;;;;;;4.99;86.50;99997.53;5220030;28;20300;-64
2021/12/05 10:59:09;;;;;;;;;;;;;;;5.01;86.54;100003.53;5221060;28;19925;-66
2021/12/05 11:01:45;;;;;;;;;;;;;;;5.03;86.30;99990.34;5221044;28;20091;-67
2021/12/05 11:04:19;;;;;;;;;;;;;;;5.05;86.23;100001.91;5216305;28;19957;-65
2021/12/05 11:06:53;;;;;;;;;;;;;;;5.08;86.26;100006.84;5219155;28;19925;-65
2021/12/05 11:09:27;;;;;;;;;;;;;;;5.11;85.94;100002.72;5220504;28;20395;-65
2021/12/05 11:12:00;;;;;;;;;;;;;;;5.15;85.55;100001.09;5220528;28;19918;-65
2021/12/05 11:14:36;;;;;;;;;;;;;;;5.17;84.83;100002.47;5220600;28;20016;-65
2021/12/05 11:17:10;;;;;;;;;;;;;;;5.20;85.32;99999.16;5199607;28;19948;-66
2021/12/05 11:19:43;;;;;;;;;;;;;;;5.21;85.38;99997.25;5203962;28;19933;-66
2021/12/05 11:22:17;;;;;;;;;;;;;;;5.21;85.40;99995.31;5221687;28;19922;-66
2021/12/05 11:24:53;;;;;;;;;;;;;;;5.17;84.01;99996.16;5219482;28;19922;-66
2021/12/05 11:27:27;;;;;;;;;;;;;;;5.16;84.72;100000.81;5207392;28;19923;-67
2021/12/05 11:30:03;;;;;;;;;;;;;;;5.17;84.52;100002.47;5200700;28;19957;-65
2021/12/05 11:32:53;;;;;;;;;;;;;;;5.22;84.96;100005.22;5201989;28;19925;-66
2021/12/05 11:35:32;;;;;;;;;;;;;;;5.29;85.66;100009.59;5220608;28;19924;-65
2021/12/05 11:38:03;;;;;;;;;;;;;;;5.34;85.67;100020.59;5221532;28;19996;-65
2021/12/05 11:40:48;;;;;;;;;;;;;;;5.34;85.18;100020.59;5228261;28;20357;-65
2021/12/05 11:43:25;;;;;;;;;;;;;;;5.38;85.63;100024.47;5218202;28;19992;-65
2021/12/05 11:46:28;;;;;;;;;;;;;;;5.39;85.34;100031.59;5222553;28;20401;-66
2021/12/05 11:49:02;;;;;;;;;;;;;;;5.43;85.12;100030.78;5219662;28;19917;-70
2021/12/05 11:51:35;;;;;;;;;;;;;;;5.44;85.56;100034.34;5224810;28;19957;-69
2021/12/05 11:54:10;;;;;;;;;;;;;;;5.48;85.71;100048.41;5223250;28;20007;-69
2021/12/05 11:56:50;;;;;;;;;;;;;;;5.52;84.96;100047.56;5234366;28;19932;-69
2021/12/05 11:59:21;;;;;;;;;;;;;;;5.54;84.92;100042.59;5221695;28;19929;-69
2021/12/05 12:02:02;;;;;;;;;;;;;;;5.56;84.62;100045.91;5224279;28;19925;-69
2021/12/05 12:04:40;;;;;;;;;;;;;;;5.57;84.51;100050.31;5224206;28;19940;-70
2021/12/05 12:07:11;;;;;;;;;;;;;;;5.61;84.38;100048.66;5223383;28;20389;-69
2021/12/05 12:09:43;;;;;;;;;;;;;;;5.62;84.49;100055.81;5223011;28;19924;-69
2021/12/05 12:12:15;;;;;;;;;;;;;;;5.64;84.55;100056.34;5221071;28;19921;-68
2021/12/05 12:14:49;;;;;;;;;;;;;;;5.65;84.25;100058.03;5220983;28;20266;-70
2021/12/05 12:17:21;;;;;;;;;;;;;;;5.66;84.22;100058.84;5221868;28;19948;-71
2021/12/05 12:19:54;;;;;;;;;;;;;;;5.68;84.13;100055.81;5223917;28;19925;-70
2021/12/05 12:22:26;;;;;;;;;;;;;;;5.69;83.88;100058.28;5223390;28;20451;-69
2021/12/05 12:25:00;;;;;;;;;;;;;;;5.71;84.27;100052.50;5223850;28;19917;-69
2021/12/05 12:27:31;;;;;;;;;;;;;;;5.72;84.00;100056.91;5223485;28;19945;-69
2021/12/05 12:30:08;;;;;;;;;;;;;;;5.72;84.45;100056.91;5233556;28;19917;-69
2021/12/05 12:32:43;;;;;;;;;;;;;;;5.75;84.52;100061.84;5223544;28;20376;-70
2021/12/05 12:35:18;;;;;;;;;;;;;;;5.75;83.71;100067.34;5221950;28;20340;-70
2021/12/05 12:37:56;;;;;;;;;;;;;;;5.72;83.86;100067.91;5223877;28;19956;-70
2021/12/05 12:40:32;;;;;;;;;;;;;;;5.71;83.97;100072.59;5223521;28;19917;-71
2021/12/05 12:43:05;;;;;;;;;;;;;;;5.74;83.48;100079.47;5223561;28;19996;-68
2021/12/05 12:45:40;;;;;;;;;;;;;;;5.77;83.43;100081.66;5223944;28;19917;-69
2021/12/05 12:48:15;;;;;;;;;;;;;;;5.78;83.49;100084.16;5224737;28;20277;-69
2021/12/05 12:50:51;;;;;;;;;;;;;;;5.74;82.84;100082.22;5223005;28;19917;-70
2021/12/05 12:53:26;;;;;;;;;;;;;;;5.66;82.28;100089.09;5222844;28;20412;-69
2021/12/05 12:56:06;;;;;;;;;;;;;;;5.64;82.79;100088.53;5221897;28;20313;-69
2021/12/05 12:58:40;;;;;;;;;;;;;;;5.62;82.69;100090.75;5221887;28;20365;-69
2021/12/05 13:04:36;;;;;;;;;;;;;;;5.62;82.39;100099.84;5222739;28;20281;-70
2021/12/05 13:10:11;;;;;;;;;;;;;;;5.62;81.91;100105.34;5222325;28;19921;-70
2021/12/05 13:12:44;;;;;;;;;;;;;;;5.63;82.57;100106.97;5238216;28;20000;-70
2021/12/05 13:15:16;;;;;;;;;;;;;;;5.64;82.60;100105.88;5223075;28;19924;-70
2021/12/05 13:17:49;;;;;;;;;;;;;;;5.65;82.68;100113.03;5222484;28;19913;-69
2021/12/05 13:20:26;;;;;;;;;;;;;;;5.66;82.91;100114.69;5223441;28;19921;-70
2021/12/05 13:23:03;;;;;;;;;;;;;;;5.66;83.00;100125.69;5222865;28;19917;-69
2021/12/05 13:25:36;;;;;;;;;;;;;;;5.64;83.01;100125.13;5209788;28;19921;-69
2021/12/05 13:28:26;;;;;;;;;;;;;;;5.63;83.43;100126.25;5221462;28;19930;-69
2021/12/05 13:30:58;;;;;;;;;;;;;;;5.64;83.38;100127.06;5221376;28;19983;-68
2021/12/05 13:33:31;;;;;;;;;;;;;;;5.64;83.12;100133.38;5221706;28;20337;-69
2021/12/05 13:36:21;;;;;;;;;;;;;;;5.66;82.97;100139.44;5221862;28;19977;-69
2021/12/05 13:38:52;;;;;;;;;;;;;;;5.69;83.34;100140.00;5218595;28;19921;-69
2021/12/05 13:41:24;;;;;;;;;;;;;;;5.69;83.09;100143.56;5221288;28;19984;-70
2021/12/05 13:43:56;;;;;;;;;;;;;;;5.72;83.54;100147.69;5222372;28;20004;-70
2021/12/05 13:46:42;;;;;;;;;;;;;;;5.75;83.07;100145.25;5219789;28;19921;-68
2021/12/05 13:49:35;;;;;;;;;;;;;;;5.78;83.02;100150.19;5211076;28;20020;-70
2021/12/05 13:52:24;;;;;;;;;;;;;;;5.82;83.63;100161.44;5221732;28;20451;-70
2021/12/05 13:55:14;;;;;;;;;;;;;;;5.82;83.28;100155.94;5219703;28;19929;-70
2021/12/05 13:58:04;;;;;;;;;;;;;;;5.82;83.29;100156.78;5222080;28;19945;-69
2021/12/05 14:00:40;;;;;;;;;;;;;;;5.86;83.13;100159.81;5220313;28;19922;-71
2021/12/05 14:03:11;;;;;;;;;;;;;;;5.86;83.12;100162.56;5222197;28;19921;-71
2021/12/05 14:05:46;;;;;;;;;;;;;;;5.83;82.88;100165.88;5221390;28;19987;-71
2021/12/05 14:08:18;;;;;;;;;;;;;;;5.84;83.34;100165.59;5219494;28;19921;-71
2021/12/05 14:10:50;;;;;;;;;;;;;;;5.88;83.54;100171.38;5220340;28;19928;-71
2021/12/05 14:13:21;;;;;;;;;;;;;;;5.87;82.54;100175.22;5229068;28;19929;-71
2021/12/05 14:15:59;;;;;;;;;;;;;;;5.86;82.89;100173.56;5220207;28;19925;-70
2021/12/05 14:18:30;;;;;;;;;;;;;;;5.86;82.98;100179.91;5221375;28;19925;-72
2021/12/05 14:21:15;;;;;;;;;;;;;;;5.88;83.23;100176.88;5221355;28;20432;-68
2021/12/05 14:23:52;;;;;;;;;;;;;;;5.92;82.96;100194.47;5221993;28;19918;-69
2021/12/05 14:26:25;;;;;;;;;;;;;;;5.93;82.57;100193.41;5219829;28;19968;-69
2021/12/05 14:29:01;;;;;;;;;;;;;;;5.94;82.69;100197.00;5221581;28;19918;-69
2021/12/05 14:31:43;;;;;;;;;;;;;;;5.95;82.63;100210.47;5220956;28;19929;-69
2021/12/05 14:34:15;;;;;;;;;;;;;;;5.94;82.46;100211.59;5221269;28;20286;-70
2021/12/05 14:36:48;;;;;;;;;;;;;;;5.88;82.01;100224.50;5220029;28;19922;-70
2021/12/05 14:39:25;;;;;;;;;;;;;;;5.87;82.30;100233.81;5212511;28;19921;-69
2021/12/05 14:41:58;;;;;;;;;;;;;;;5.84;81.52;100242.63;5220165;28;19913;-68
2021/12/05 14:44:30;;;;;;;;;;;;;;;5.83;82.64;100235.50;5220899;28;20332;-69
2021/12/05 14:47:13;;;;;;;;;;;;;;;5.83;82.09;100238.25;5227009;28;19913;-68
2021/12/05 14:49:46;;;;;;;;;;;;;;;5.83;82.06;100241.00;5220002;28;20293;-69
2021/12/05 14:52:19;;;;;;;;;;;;;;;5.85;82.12;100251.72;5220687;28;19921;-68
2021/12/05 14:54:52;;;;;;;;;;;;;;;5.87;82.41;100250.34;5220353;28;19924;-70
2021/12/05 14:57:25;;;;;;;;;;;;;;;5.84;81.44;100259.16;5218758;28;20737;-70
2021/12/05 15:00:05;;;;;;;;;;;;;;;5.82;82.07;100260.53;5218834;28;19979;-70
2021/12/05 15:02:36;;;;;;;;;;;;;;;5.82;82.27;100271.53;5213774;28;19921;-70
2021/12/05 15:05:09;;;;;;;;;;;;;;;5.84;82.52;100272.91;5219495;28;19918;-70
2021/12/05 15:07:40;;;;;;;;;;;;;;;5.90;82.07;100268.25;5220355;28;19918;-70
2021/12/05 15:10:18;;;;;;;;;;;;;;;5.94;81.61;100285.09;5220373;28;19917;-70
2021/12/05 15:12:52;;;;;;;;;;;;;;;5.94;81.81;100285.91;5220421;28;19972;-70
2021/12/05 15:15:24;;;;;;;;;;;;;;;5.91;81.79;100289.19;5220252;28;19918;-70
2021/12/05 15:17:56;;;;;;;;;;;;;;;5.93;82.39;100298.00;5219821;28;19917;-70
2021/12/05 15:20:28;;;;;;;;;;;;;;;5.92;81.04;100309.25;5227447;28;19921;-70
2021/12/05 15:23:04;;;;;;;;;;;;;;;5.87;80.92;100302.63;5224291;28;19949;-69
2021/12/05 15:25:37;;;;;;;;;;;;;;;5.86;81.77;100312.00;5223616;28;19921;-70
2021/12/05 15:28:09;;;;;;;;;;;;;;;5.88;82.16;100320.00;5225242;28;19925;-76
2021/12/05 15:30:41;;;;;;;;;;;;;;;5.88;81.58;100331.81;5224985;28;19917;-76
2021/12/05 15:33:14;;;;;;;;;;;;;;;5.88;81.52;100336.50;5224995;28;19971;-76
2021/12/05 15:35:46;;;;;;;;;;;;;;;5.91;80.92;100338.72;5224196;28;19975;-77
2021/12/05 15:38:23;;;;;;;;;;;;;;;5.88;81.82;100348.34;5224453;28;19998;-76
2021/12/05 15:40:57;;;;;;;;;;;;;;;5.89;81.76;100346.41;5224204;28;19953;-76
2021/12/05 15:43:30;;;;;;;;;;;;;;;5.91;82.02;100351.66;5204866;28;19965;-76
2021/12/05 15:46:04;;;;;;;;;;;;;;;5.91;81.91;100357.97;5204146;28;20374;-76
2021/12/05 15:48:36;;;;;;;;;;;;;;;5.92;82.19;100356.06;5213677;28;19917;-74
2021/12/05 15:51:10;;;;;;;;;;;;;;;5.92;82.31;100365.13;5225014;28;19960;-72
2021/12/05 15:53:42;;;;;;;;;;;;;;;5.93;81.78;100360.44;5221837;28;19940;-75
2021/12/05 15:56:14;;;;;;;;;;;;;;;5.94;82.69;100373.97;5224104;28;19918;-72
2021/12/05 15:58:51;;;;;;;;;;;;;;;5.93;82.26;100372.31;5239279;28;19917;-72
2021/12/05 16:01:24;;;;;;;;;;;;;;;5.91;82.38;100385.50;5204581;28;19941;-72
2021/12/05 16:03:57;;;;;;;;;;;;;;;5.92;82.47;100383.56;5202575;28;20000;-73
2021/12/05 16:06:38;;;;;;;;;;;;;;;5.90;82.92;100389.34;5203088;28;19918;-73
2021/12/05 16:09:23;;;;;;;;;;;;;;;5.91;82.85;100390.19;5203996;28;19918;-73
2021/12/05 16:12:05;;;;;;;;;;;;;;;5.91;82.60;100399.28;5222207;28;19928;-72
2021/12/05 16:14:38;;;;;;;;;;;;;;;5.85;81.29;100392.91;5224091;28;19955;-75
2021/12/05 16:17:29;;;;;;;;;;;;;;;5.86;82.30;100399.25;5224223;28;19921;-74
2021/12/05 16:20:10;;;;;;;;;;;;;;;5.86;82.32;100411.06;5223417;28;19921;-74
2021/12/05 16:22:54;;;;;;;;;;;;;;;5.87;82.45;100414.66;5224118;28;20471;-74
2021/12/05 16:25:26;;;;;;;;;;;;;;;5.87;82.63;100422.91;5224044;28;19964;-74
2021/12/05 16:28:01;;;;;;;;;;;;;;;5.89;82.29;100428.97;5224000;28;19972;-73
2021/12/05 16:30:40;;;;;;;;;;;;;;;5.90;82.33;100427.88;5222825;28;19917;-72
2021/12/05 16:33:13;;;;;;;;;;;;;;;5.91;82.88;100432.28;5223954;28;19921;-72
2021/12/05 16:35:48;;;;;;;;;;;;;;;5.88;82.47;100433.66;5222902;28;19925;-72
2021/12/05 16:38:31;;;;;;;;;;;;;;;5.87;82.44;100440.25;5224354;28;20428;-72
2021/12/05 16:41:08;;;;;;;;;;;;;;;5.82;82.54;100442.16;5223111;28;19921;-72
2021/12/05 16:43:59;;;;;;;;;;;;;;;5.84;82.90;100448.22;5223459;28;19933;-69
2021/12/05 16:46:33;;;;;;;;;;;;;;;5.85;82.74;100449.88;5223031;28;20452;-73
2021/12/05 16:49:08;;;;;;;;;;;;;;;5.88;82.66;100446.59;5223247;28;20000;-73
2021/12/05 16:51:45;;;;;;;;;;;;;;;5.90;82.75;100447.13;5223586;28;20373;-68
2021/12/05 16:54:20;;;;;;;;;;;;;;;5.91;82.53;100448.00;5214741;28;20407;-68
2021/12/05 16:56:58;;;;;;;;;;;;;;;5.89;82.98;100448.25;5221526;28;20016;-67
2021/12/05 16:59:39;;;;;;;;;;;;;;;5.89;82.59;100453.75;5223246;28;19945;-68
2021/12/05 17:02:12;;;;;;;;;;;;;;;5.90;82.56;100455.38;5223195;28;19917;-69
2021/12/05 17:04:45;;;;;;;;;;;;;;;5.92;82.57;100455.97;5222573;28;19925;-69
2021/12/05 17:07:48;;;;;;;;;;;;;;;5.90;82.74;100469.16;5223348;28;19967;-69
2021/12/05 17:10:19;;;;;;;;;;;;;;;5.91;82.44;100472.75;5213827;28;20408;-69
2021/12/05 17:12:54;;;;;;;;;;;;;;;5.87;82.57;100473.28;5223354;28;19921;-69
2021/12/05 17:15:27;;;;;;;;;;;;;;;5.84;82.59;100479.31;5222941;28;19927;-70
2021/12/05 17:18:03;;;;;;;;;;;;;;;5.84;82.81;100484.00;5223457;28;19980;-69
2021/12/05 17:20:43;;;;;;;;;;;;;;;5.85;82.56;100496.66;5230534;28;19921;-73
2021/12/05 17:23:23;;;;;;;;;;;;;;;5.86;83.26;100498.31;5222530;28;19964;-74
2021/12/05 17:25:56;;;;;;;;;;;;;;;5.87;82.86;100506.28;5222914;28;19917;-75
2021/12/05 17:28:34;;;;;;;;;;;;;;;5.87;83.34;100506.28;5220936;28;19922;-74
2021/12/05 17:31:08;;;;;;;;;;;;;;;5.87;83.29;100505.47;5221710;28;19928;-73
2021/12/05 17:33:41;;;;;;;;;;;;;;;5.87;83.25;100510.97;5222547;28;19917;-72
2021/12/05 17:36:25;;;;;;;;;;;;;;;5.85;82.51;100513.16;5232317;28;19959;-73
2021/12/05 17:38:58;;;;;;;;;;;;;;;5.84;83.29;100517.84;5237258;28;20374;-73
2021/12/05 17:41:30;;;;;;;;;;;;;;;5.87;83.09;100527.50;5222615;28;20004;-73
2021/12/05 17:44:03;;;;;;;;;;;;;;;5.90;82.87;100524.19;5221861;28;20032;-73
2021/12/05 17:46:35;;;;;;;;;;;;;;;5.92;82.70;100541.28;5222227;28;20373;-73
2021/12/05 17:49:08;;;;;;;;;;;;;;;5.90;82.35;100543.47;5222600;28;19921;-73
2021/12/05 17:51:41;;;;;;;;;;;;;;;5.88;82.29;100552.00;5221756;28;19929;-72
2021/12/05 17:54:24;;;;;;;;;;;;;;;5.85;82.56;100560.81;5222787;28;19918;-73
2021/12/05 17:57:03;;;;;;;;;;;;;;;5.83;82.31;100567.66;5222211;28;19917;-73
2021/12/05 18:00:11;;;;;;;;;;;;;;;5.82;82.61;100571.50;5221799;28;19918;-74
2021/12/05 18:02:45;;;;;;;;;;;;;;;5.74;81.96;100575.56;5222501;28;20281;-72
2021/12/05 18:05:18;;;;;;;;;;;;;;;5.68;82.57;100578.56;5208926;28;19961;-73
2021/12/05 18:07:52;;;;;;;;;;;;;;;5.64;82.98;100578.25;5221857;28;19922;-73
2021/12/05 18:10:26;;;;;;;;;;;;;;;5.63;83.07;100591.19;5231909;28;19929;-73
2021/12/05 18:12:59;;;;;;;;;;;;;;;5.62;82.90;100592.28;5221406;28;20001;-73
2021/12/05 18:15:35;;;;;;;;;;;;;;;5.63;82.75;100593.94;5218217;28;20013;-73
2021/12/05 18:18:06;;;;;;;;;;;;;;;5.64;82.99;100595.56;5201437;28;20352;-73
2021/12/05 18:20:40;;;;;;;;;;;;;;;5.65;82.86;100596.44;5200911;28;19922;-74
2021/12/05 18:23:12;;;;;;;;;;;;;;;5.65;83.60;100596.44;5201826;28;20020;-73
2021/12/05 18:25:43;;;;;;;;;;;;;;;5.66;84.74;100598.91;5210368;28;20020;-74
2021/12/05 18:28:16;;;;;;;;;;;;;;;5.70;82.87;100606.63;5230673;28;19964;-75